Aviation Digital Data Service (ADDS)

Output produced by METARs form (1101 UTC 30 April 2017)
found at http://www.aviationweather.gov/adds/metars/
 
UMBB 301000Z 10004MPS 8000 NSC 10/04 Q1021 NOSIG
TAF UMBB 300805Z 3009/3018 06005MPS 6000 BKN015 
     TEMPO 3009/3015 3000 -SHRA BKN007 SCT020CB
       
UMGG 301030Z 32006G09MPS 9999 SCT019CB BKN100 12/07 Q1018 R28/D NOSIG
TAF UMGG 300500Z 3006/0106 33005G10MPS 9999 BKN020 
     TEMPO 3006/3018 2000 SHRA BKN005 BKN025CB 
     PROB40 
     TEMPO 3006/3018 -TSRA BKN025CB 
     TEMPO 3018/0106 03006MPS 1200 -SHRA BR BKN004 BKN015CB
       
UMMG 301000Z 33003G06MPS 9999 BKN023 BKN066 07/00 Q1022 NOSIG
TAF UMMG 300804Z 3009/3018 33005G10MPS 9999 BKN016 
     TEMPO 3009/3015 4000 -SHRA BKN007 SCT012CB
       
UMBB 301000Z 10004MPS 8000 NSC 10/04 Q1021 NOSIG
TAF UMBB 300805Z 3009/3018 06005MPS 6000 BKN015 
     TEMPO 3009/3015 3000 -SHRA BKN007 SCT020CB
       
UMGG 301030Z 32006G09MPS 9999 SCT019CB BKN100 12/07 Q1018 R28/D NOSIG
TAF UMGG 300500Z 3006/0106 33005G10MPS 9999 BKN020 
     TEMPO 3006/3018 2000 SHRA BKN005 BKN025CB 
     PROB40 
     TEMPO 3006/3018 -TSRA BKN025CB 
     TEMPO 3018/0106 03006MPS 1200 -SHRA BR BKN004 BKN015CB
       
UMII 301000Z 30002MPS 5000 -SHRA SCT010 BKN019CB 06/05 Q1020 TEMPO 2100 BKN005
TAF UMII 300805Z 3009/3018 30003MPS 5000 -RA BR OVC010 
     TEMPO 3009/3018 VRB07MPS 1000 SHRA BR BKN003 BKN012CB
       
UMKK 301030Z 34004MPS 270V030 9999 FEW020 08/M05 Q1025 R24/60D NOSIG RMK QFE767/1023
TAF UMKK 300800Z 3009/0109 33003G08MPS 9999 BKN020 
     TEMPO 3009/3015 36005G10MPS SCT020CB 
     TEMPO 3015/3021 02005MPS 
     BECMG 3021/3023 07003G08MPS
       
UMMG 301000Z 33003G06MPS 9999 BKN023 BKN066 07/00 Q1022 NOSIG
TAF UMMG 300804Z 3009/3018 33005G10MPS 9999 BKN016 
     TEMPO 3009/3015 4000 -SHRA BKN007 SCT012CB
       
UMMS 301030Z 32002MPS 290V360 9999 BKN025 BKN074 08/02 Q1021 R31/290055 NOSIG
TAF UMMS 300504Z 3006/0106 34005G10MPS 9999 BKN015 
     TEMPO 3006/3018 2000 TSRA BKN005 BKN015CB 
     TEMPO 3018/0106 02007G12MPS 1200 SHRA BR BKN004 BKN012CB
       
UMOO 301000Z 33004G07MPS 8000 -SHRA BKN012 OVC030CB 07/05 Q1019 NOSIG
TAF UMOO 300800Z 3009/3018 32006MPS 8000 BKN015 
     TEMPO 3009/3018 35005G10MPS 2000 SHRA BR BKN005 BKN020CB
       
UMMS 301030Z 32002MPS 290V360 9999 BKN025 BKN074 08/02 Q1021 R31/290055 NOSIG
TAF UMMS 300504Z 3006/0106 34005G10MPS 9999 BKN015 
     TEMPO 3006/3018 2000 TSRA BKN005 BKN015CB 
     TEMPO 3018/0106 02007G12MPS 1200 SHRA BR BKN004 BKN012CB
       
UMOO 301000Z 33004G07MPS 8000 -SHRA BKN012 OVC030CB 07/05 Q1019 NOSIG
TAF UMOO 300800Z 3009/3018 32006MPS 8000 BKN015 
     TEMPO 3009/3018 35005G10MPS 2000 SHRA BR BKN005 BKN020CB